sensor_id;sensor_type;location;lat;lon;timestamp;temperature;humidity
4293;DHT22;2160;51.172;6.808;2022-08-19T04:00:36;22.20;99.90
4293;DHT22;2160;51.172;6.808;2022-08-19T04:03:03;22.10;99.90
4293;DHT22;2160;51.172;6.808;2022-08-19T04:05:30;22.10;99.90
4293;DHT22;2160;51.172;6.808;2022-08-19T04:07:57;22.20;99.90
4293;DHT22;2160;51.172;6.808;2022-08-19T04:10:24;22.20;99.90
4293;DHT22;2160;51.172;6.808;2022-08-19T04:12:51;22.20;99.90
4293;DHT22;2160;51.172;6.808;2022-08-19T04:15:18;22.30;99.90
4293;DHT22;2160;51.172;6.808;2022-08-19T04:17:47;22.30;99.90
4293;DHT22;2160;51.172;6.808;2022-08-19T04:20:14;22.30;99.90
4293;DHT22;2160;51.172;6.808;2022-08-19T04:22:41;22.30;99.90
4293;DHT22;2160;51.172;6.808;2022-08-19T04:25:09;22.40;99.90
4293;DHT22;2160;51.172;6.808;2022-08-19T04:27:36;22.40;99.90
4293;DHT22;2160;51.172;6.808;2022-08-19T04:30:04;22.40;99.90
4293;DHT22;2160;51.172;6.808;2022-08-19T04:32:31;22.30;99.90
4293;DHT22;2160;51.172;6.808;2022-08-19T04:34:59;22.40;99.90
4293;DHT22;2160;51.172;6.808;2022-08-19T04:37:26;22.30;99.90
4293;DHT22;2160;51.172;6.808;2022-08-19T04:39:58;22.30;99.90
4293;DHT22;2160;51.172;6.808;2022-08-19T04:42:43;22.30;99.90
4293;DHT22;2160;51.172;6.808;2022-08-19T04:45:12;22.30;99.90
4293;DHT22;2160;51.172;6.808;2022-08-19T04:47:41;22.20;99.90
4293;DHT22;2160;51.172;6.808;2022-08-19T04:50:10;22.20;99.90
4293;DHT22;2160;51.172;6.808;2022-08-19T04:52:37;22.20;99.90
4293;DHT22;2160;51.172;6.808;2022-08-19T04:55:08;22.10;99.90
4293;DHT22;2160;51.172;6.808;2022-08-19T04:57:36;22.20;99.90
4293;DHT22;2160;51.172;6.808;2022-08-19T05:00:06;22.30;99.90
4293;DHT22;2160;51.172;6.808;2022-08-19T05:02:33;22.30;99.90
4293;DHT22;2160;51.172;6.808;2022-08-19T05:05:00;22.40;99.90
4293;DHT22;2160;51.172;6.808;2022-08-19T05:07:29;22.40;99.90
4293;DHT22;2160;51.172;6.808;2022-08-19T05:09:56;22.40;99.90
4293;DHT22;2160;51.172;6.808;2022-08-19T05:12:23;22.30;99.90
4293;DHT22;2160;51.172;6.808;2022-08-19T05:14:50;22.30;99.90
4293;DHT22;2160;51.172;6.808;2022-08-19T05:17:17;22.40;99.90
4293;DHT22;2160;51.172;6.808;2022-08-19T05:19:44;22.40;99.90
4293;DHT22;2160;51.172;6.808;2022-08-19T05:22:30;22.20;99.90
4293;DHT22;2160;51.172;6.808;2022-08-19T05:25:06;22.20;99.90
4293;DHT22;2160;51.172;6.808;2022-08-19T05:27:33;22.20;99.90
4293;DHT22;2160;51.172;6.808;2022-08-19T05:30:01;22.20;99.90
4293;DHT22;2160;51.172;6.808;2022-08-19T05:32:28;22.30;99.90
4293;DHT22;2160;51.172;6.808;2022-08-19T05:34:55;22.40;99.90
4293;DHT22;2160;51.172;6.808;2022-08-19T05:37:22;22.40;99.90
4293;DHT22;2160;51.172;6.808;2022-08-19T05:39:54;22.40;99.90
4293;DHT22;2160;51.172;6.808;2022-08-19T05:42:21;22.40;99.90
4293;DHT22;2160;51.172;6.808;2022-08-19T05:44:50;22.50;99.90
4293;DHT22;2160;51.172;6.808;2022-08-19T05:47:34;22.50;99.90
4293;DHT22;2160;51.172;6.808;2022-08-19T05:50:02;22.50;99.90
4293;DHT22;2160;51.172;6.808;2022-08-19T05:52:29;22.50;99.90
4293;DHT22;2160;51.172;6.808;2022-08-19T05:54:57;22.50;99.90
4293;DHT22;2160;51.172;6.808;2022-08-19T05:57:24;22.50;99.90
4293;DHT22;2160;51.172;6.808;2022-08-19T05:59:52;22.50;99.90
4293;DHT22;2160;51.172;6.808;2022-08-19T06:02:19;22.50;99.90
4293;DHT22;2160;51.172;6.808;2022-08-19T06:04:46;22.50;99.90
4293;DHT22;2160;51.172;6.808;2022-08-19T06:07:13;22.50;99.90
4293;DHT22;2160;51.172;6.808;2022-08-19T06:09:41;22.40;99.90
4293;DHT22;2160;51.172;6.808;2022-08-19T06:12:09;22.20;99.90
4293;DHT22;2160;51.172;6.808;2022-08-19T06:14:37;22.20;99.90
4293;DHT22;2160;51.172;6.808;2022-08-19T06:17:04;22.20;99.90
4293;DHT22;2160;51.172;6.808;2022-08-19T06:19:31;22.40;99.90
4293;DHT22;2160;51.172;6.808;2022-08-19T06:22:00;22.40;99.90
4293;DHT22;2160;51.172;6.808;2022-08-19T06:24:28;22.50;99.90
4293;DHT22;2160;51.172;6.808;2022-08-19T06:26:57;22.50;99.90
4293;DHT22;2160;51.172;6.808;2022-08-19T06:29:26;22.50;99.90
4293;DHT22;2160;51.172;6.808;2022-08-19T06:31:56;22.60;99.90
4293;DHT22;2160;51.172;6.808;2022-08-19T06:34:25;22.60;99.90
4293;DHT22;2160;51.172;6.808;2022-08-19T06:36:53;22.60;99.90
4293;DHT22;2160;51.172;6.808;2022-08-19T06:39:22;22.60;99.90
4293;DHT22;2160;51.172;6.808;2022-08-19T06:41:53;22.70;99.90
4293;DHT22;2160;51.172;6.808;2022-08-19T06:44:21;22.60;99.90
4293;DHT22;2160;51.172;6.808;2022-08-19T06:46:51;22.70;99.90
4293;DHT22;2160;51.172;6.808;2022-08-19T06:49:18;22.70;99.90
4293;DHT22;2160;51.172;6.808;2022-08-19T06:51:46;22.80;99.90
4293;DHT22;2160;51.172;6.808;2022-08-19T06:54:14;22.80;99.90
4293;DHT22;2160;51.172;6.808;2022-08-19T06:56:42;22.80;99.90
4293;DHT22;2160;51.172;6.808;2022-08-19T06:59:13;22.80;99.90
4293;DHT22;2160;51.172;6.808;2022-08-19T07:01:42;22.80;99.90
4293;DHT22;2160;51.172;6.808;2022-08-19T07:04:14;22.80;99.90
4293;DHT22;2160;51.172;6.808;2022-08-19T07:06:43;22.80;99.90
4293;DHT22;2160;51.172;6.808;2022-08-19T07:09:13;22.70;99.90
4293;DHT22;2160;51.172;6.808;2022-08-19T07:11:44;22.70;99.90
4293;DHT22;2160;51.172;6.808;2022-08-19T07:14:11;22.60;99.90
4293;DHT22;2160;51.172;6.808;2022-08-19T07:16:39;22.60;99.90
4293;DHT22;2160;51.172;6.808;2022-08-19T07:19:06;22.70;99.90
4293;DHT22;2160;51.172;6.808;2022-08-19T07:21:35;22.80;99.90
4293;DHT22;2160;51.172;6.808;2022-08-19T07:24:03;22.80;99.90
4293;DHT22;2160;51.172;6.808;2022-08-19T07:26:32;22.90;99.90
4293;DHT22;2160;51.172;6.808;2022-08-19T07:28:59;22.90;99.90
4293;DHT22;2160;51.172;6.808;2022-08-19T07:31:28;22.90;99.90
4293;DHT22;2160;51.172;6.808;2022-08-19T07:33:56;23.00;99.90
4293;DHT22;2160;51.172;6.808;2022-08-19T07:36:25;23.00;99.90
4293;DHT22;2160;51.172;6.808;2022-08-19T07:38:56;23.10;99.90
4293;DHT22;2160;51.172;6.808;2022-08-19T07:41:26;23.10;99.90
4293;DHT22;2160;51.172;6.808;2022-08-19T07:43:57;23.00;99.90
4293;DHT22;2160;51.172;6.808;2022-08-19T07:46:29;23.10;99.90
4293;DHT22;2160;51.172;6.808;2022-08-19T07:48:57;23.20;99.90
4293;DHT22;2160;51.172;6.808;2022-08-19T07:51:26;23.20;99.90
4293;DHT22;2160;51.172;6.808;2022-08-19T07:53:55;23.30;99.90
4293;DHT22;2160;51.172;6.808;2022-08-19T07:56:23;23.30;99.90
4293;DHT22;2160;51.172;6.808;2022-08-19T07:58:51;23.50;99.90
4293;DHT22;2160;51.172;6.808;2022-08-19T08:01:21;23.70;99.90
4293;DHT22;2160;51.172;6.808;2022-08-19T08:03:50;23.70;99.90
4293;DHT22;2160;51.172;6.808;2022-08-19T08:06:35;23.80;99.90
4293;DHT22;2160;51.172;6.808;2022-08-19T08:09:24;23.90;99.90
4293;DHT22;2160;51.172;6.808;2022-08-19T08:11:53;23.90;99.90
4293;DHT22;2160;51.172;6.808;2022-08-19T08:14:24;23.90;99.90
4293;DHT22;2160;51.172;6.808;2022-08-19T08:16:51;24.00;99.90
4293;DHT22;2160;51.172;6.808;2022-08-19T08:19:20;24.10;99.90
4293;DHT22;2160;51.172;6.808;2022-08-19T08:21:48;24.10;99.90
4293;DHT22;2160;51.172;6.808;2022-08-19T08:24:16;24.20;99.90
4293;DHT22;2160;51.172;6.808;2022-08-19T08:26:44;24.40;99.90
4293;DHT22;2160;51.172;6.808;2022-08-19T08:29:12;24.50;99.90
4293;DHT22;2160;51.172;6.808;2022-08-19T08:31:41;24.70;99.90
4293;DHT22;2160;51.172;6.808;2022-08-19T08:34:08;24.70;99.90
4293;DHT22;2160;51.172;6.808;2022-08-19T08:36:37;24.60;99.90
4293;DHT22;2160;51.172;6.808;2022-08-19T08:39:06;24.60;99.90
4293;DHT22;2160;51.172;6.808;2022-08-19T08:41:36;24.50;99.90
4293;DHT22;2160;51.172;6.808;2022-08-19T08:44:14;24.70;99.90
4293;DHT22;2160;51.172;6.808;2022-08-19T08:46:45;24.90;99.90
4293;DHT22;2160;51.172;6.808;2022-08-19T08:49:23;24.80;99.90
4293;DHT22;2160;51.172;6.808;2022-08-19T08:51:59;25.00;99.90
4293;DHT22;2160;51.172;6.808;2022-08-19T08:54:32;25.00;99.90
4293;DHT22;2160;51.172;6.808;2022-08-19T08:56:59;24.90;99.90
4293;DHT22;2160;51.172;6.808;2022-08-19T08:59:30;25.10;99.90
4293;DHT22;2160;51.172;6.808;2022-08-19T09:01:58;25.20;99.90
4293;DHT22;2160;51.172;6.808;2022-08-19T09:04:25;25.20;99.90
4293;DHT22;2160;51.172;6.808;2022-08-19T09:07:04;25.00;99.90
4293;DHT22;2160;51.172;6.808;2022-08-19T09:09:38;25.10;99.90
4293;DHT22;2160;51.172;6.808;2022-08-19T09:12:11;25.20;99.90
4293;DHT22;2160;51.172;6.808;2022-08-19T09:14:48;25.20;99.90
4293;DHT22;2160;51.172;6.808;2022-08-19T09:17:16;25.10;99.90
4293;DHT22;2160;51.172;6.808;2022-08-19T09:19:52;25.20;99.90
4293;DHT22;2160;51.172;6.808;2022-08-19T09:22:20;25.30;99.90
4293;DHT22;2160;51.172;6.808;2022-08-19T09:24:49;25.40;99.90
4293;DHT22;2160;51.172;6.808;2022-08-19T09:27:17;25.50;99.90
4293;DHT22;2160;51.172;6.808;2022-08-19T09:29:47;25.50;99.90
4293;DHT22;2160;51.172;6.808;2022-08-19T09:32:14;25.50;99.90
4293;DHT22;2160;51.172;6.808;2022-08-19T09:34:42;25.50;99.90
4293;DHT22;2160;51.172;6.808;2022-08-19T09:37:09;25.60;99.90
4293;DHT22;2160;51.172;6.808;2022-08-19T09:39:39;25.60;99.90
4293;DHT22;2160;51.172;6.808;2022-08-19T09:42:08;25.40;99.90
4293;DHT22;2160;51.172;6.808;2022-08-19T09:44:38;25.30;99.90
4293;DHT22;2160;51.172;6.808;2022-08-19T09:47:06;25.30;99.90
4293;DHT22;2160;51.172;6.808;2022-08-19T09:49:33;25.40;99.90
4293;DHT22;2160;51.172;6.808;2022-08-19T09:52:00;25.70;99.90
4293;DHT22;2160;51.172;6.808;2022-08-19T09:54:27;25.90;99.90
4293;DHT22;2160;51.172;6.808;2022-08-19T09:56:55;26.10;99.90
4293;DHT22;2160;51.172;6.808;2022-08-19T09:59:22;26.10;99.90
4293;DHT22;2160;51.172;6.808;2022-08-19T10:01:49;26.10;99.90
4293;DHT22;2160;51.172;6.808;2022-08-19T10:04:20;26.20;99.90
4293;DHT22;2160;51.172;6.808;2022-08-19T10:06:49;26.20;99.90
4293;DHT22;2160;51.172;6.808;2022-08-19T10:09:17;26.40;99.90
4293;DHT22;2160;51.172;6.808;2022-08-19T10:11:48;26.60;99.90
4293;DHT22;2160;51.172;6.808;2022-08-19T10:14:15;26.70;99.90
4293;DHT22;2160;51.172;6.808;2022-08-19T10:19:35;26.80;99.90
4293;DHT22;2160;51.172;6.808;2022-08-19T10:22:04;26.70;99.90
4293;DHT22;2160;51.172;6.808;2022-08-19T10:24:32;26.70;99.90
4293;DHT22;2160;51.172;6.808;2022-08-19T10:27:00;26.50;99.90
4293;DHT22;2160;51.172;6.808;2022-08-19T10:29:29;26.40;99.90
4293;DHT22;2160;51.172;6.808;2022-08-19T10:31:57;26.50;99.90
4293;DHT22;2160;51.172;6.808;2022-08-19T10:34:26;26.30;99.90
4293;DHT22;2160;51.172;6.808;2022-08-19T10:36:55;26.40;99.90
4293;DHT22;2160;51.172;6.808;2022-08-19T10:39:22;26.70;99.90
4293;DHT22;2160;51.172;6.808;2022-08-19T10:41:49;26.60;99.90
4293;DHT22;2160;51.172;6.808;2022-08-19T10:44:16;26.80;99.90
4293;DHT22;2160;51.172;6.808;2022-08-19T10:46:44;26.60;99.90
4293;DHT22;2160;51.172;6.808;2022-08-19T10:49:13;26.60;99.90
4293;DHT22;2160;51.172;6.808;2022-08-19T10:51:40;26.60;99.90
4293;DHT22;2160;51.172;6.808;2022-08-19T10:54:26;26.70;99.90
4293;DHT22;2160;51.172;6.808;2022-08-19T10:57:14;26.70;99.90
4293;DHT22;2160;51.172;6.808;2022-08-19T10:59:40;26.70;99.90
4293;DHT22;2160;51.172;6.808;2022-08-19T11:02:09;27.10;99.90
4293;DHT22;2160;51.172;6.808;2022-08-19T11:04:37;27.10;99.90
4293;DHT22;2160;51.172;6.808;2022-08-19T11:07:05;27.20;99.90
4293;DHT22;2160;51.172;6.808;2022-08-19T11:09:38;27.30;99.90
4293;DHT22;2160;51.172;6.808;2022-08-19T11:12:06;27.30;99.90
4293;DHT22;2160;51.172;6.808;2022-08-19T11:14:34;27.20;99.90
4293;DHT22;2160;51.172;6.808;2022-08-19T11:17:02;27.30;99.90
4293;DHT22;2160;51.172;6.808;2022-08-19T11:19:29;27.40;99.90
4293;DHT22;2160;51.172;6.808;2022-08-19T11:21:56;27.50;99.90
4293;DHT22;2160;51.172;6.808;2022-08-19T11:24:25;27.50;99.90
4293;DHT22;2160;51.172;6.808;2022-08-19T11:27:00;27.40;99.90
4293;DHT22;2160;51.172;6.808;2022-08-19T11:29:28;27.40;99.90
4293;DHT22;2160;51.172;6.808;2022-08-19T11:31:55;27.50;99.90
4293;DHT22;2160;51.172;6.808;2022-08-19T11:34:24;27.70;99.90
4293;DHT22;2160;51.172;6.808;2022-08-19T11:36:53;27.80;99.90
4293;DHT22;2160;51.172;6.808;2022-08-19T11:39:22;28.20;99.90
4293;DHT22;2160;51.172;6.808;2022-08-19T11:41:50;28.30;99.90
4293;DHT22;2160;51.172;6.808;2022-08-19T11:44:19;28.40;99.90
4293;DHT22;2160;51.172;6.808;2022-08-19T11:46:46;28.70;99.90
4293;DHT22;2160;51.172;6.808;2022-08-19T11:49:14;28.70;99.20
4293;DHT22;2160;51.172;6.808;2022-08-19T11:51:44;28.60;99.20
4293;DHT22;2160;51.172;6.808;2022-08-19T11:54:12;28.70;98.00
4293;DHT22;2160;51.172;6.808;2022-08-19T11:56:40;28.90;97.70
4293;DHT22;2160;51.172;6.808;2022-08-19T11:59:07;29.00;96.20
4293;DHT22;2160;51.172;6.808;2022-08-19T12:01:36;29.00;96.50
4293;DHT22;2160;51.172;6.808;2022-08-19T12:04:06;28.90;94.80
4293;DHT22;2160;51.172;6.808;2022-08-19T12:06:33;29.00;95.40
4293;DHT22;2160;51.172;6.808;2022-08-19T12:09:04;29.10;95.10
4293;DHT22;2160;51.172;6.808;2022-08-19T12:11:32;29.20;95.10
4293;DHT22;2160;51.172;6.808;2022-08-19T12:13:59;29.40;95.50
4293;DHT22;2160;51.172;6.808;2022-08-19T12:16:28;29.40;94.00
4293;DHT22;2160;51.172;6.808;2022-08-19T12:18:57;29.40;94.70
4293;DHT22;2160;51.172;6.808;2022-08-19T12:21:30;29.40;93.90
4293;DHT22;2160;51.172;6.808;2022-08-19T12:23:59;29.40;93.30
4293;DHT22;2160;51.172;6.808;2022-08-19T12:26:28;29.20;92.90
4293;DHT22;2160;51.172;6.808;2022-08-19T12:28:57;29.10;92.70
4293;DHT22;2160;51.172;6.808;2022-08-19T12:31:25;29.00;93.10
4293;DHT22;2160;51.172;6.808;2022-08-19T12:33:53;29.10;94.20
4293;DHT22;2160;51.172;6.808;2022-08-19T12:36:22;29.20;92.70
4293;DHT22;2160;51.172;6.808;2022-08-19T12:38:49;29.30;93.60
4293;DHT22;2160;51.172;6.808;2022-08-19T12:41:17;29.40;92.70
4293;DHT22;2160;51.172;6.808;2022-08-19T12:43:45;29.30;91.10
4293;DHT22;2160;51.172;6.808;2022-08-19T12:46:13;29.30;91.20
4293;DHT22;2160;51.172;6.808;2022-08-19T12:48:40;29.20;90.20
4293;DHT22;2160;51.172;6.808;2022-08-19T12:51:13;29.20;90.60
4293;DHT22;2160;51.172;6.808;2022-08-19T12:53:42;29.10;90.70
4293;DHT22;2160;51.172;6.808;2022-08-19T12:56:11;29.00;89.50
4293;DHT22;2160;51.172;6.808;2022-08-19T12:58:40;28.90;89.00
4293;DHT22;2160;51.172;6.808;2022-08-19T13:01:09;29.00;89.10
4293;DHT22;2160;51.172;6.808;2022-08-19T13:03:37;29.10;87.00
4293;DHT22;2160;51.172;6.808;2022-08-19T13:06:04;29.20;85.10
4293;DHT22;2160;51.172;6.808;2022-08-19T13:08:31;29.40;83.40
4293;DHT22;2160;51.172;6.808;2022-08-19T13:11:07;29.60;83.50
4293;DHT22;2160;51.172;6.808;2022-08-19T13:13:33;29.60;83.20
4293;DHT22;2160;51.172;6.808;2022-08-19T13:16:01;29.70;84.30
4293;DHT22;2160;51.172;6.808;2022-08-19T13:18:29;29.90;83.30
4293;DHT22;2160;51.172;6.808;2022-08-19T13:20:57;29.90;82.00
4293;DHT22;2160;51.172;6.808;2022-08-19T13:23:24;30.10;81.20
4293;DHT22;2160;51.172;6.808;2022-08-19T13:25:59;30.20;81.10
4293;DHT22;2160;51.172;6.808;2022-08-19T13:28:26;30.40;78.70
4293;DHT22;2160;51.172;6.808;2022-08-19T13:31:15;30.50;78.00
4293;DHT22;2160;51.172;6.808;2022-08-19T13:34:00;30.70;77.10
4293;DHT22;2160;51.172;6.808;2022-08-19T13:36:27;30.80;77.20
4293;DHT22;2160;51.172;6.808;2022-08-19T13:38:54;30.60;75.00
4293;DHT22;2160;51.172;6.808;2022-08-19T13:41:23;30.60;75.00
4293;DHT22;2160;51.172;6.808;2022-08-19T13:43:50;30.70;75.10
4293;DHT22;2160;51.172;6.808;2022-08-19T13:46:17;30.70;75.60
4293;DHT22;2160;51.172;6.808;2022-08-19T13:48:45;30.70;74.40
4293;DHT22;2160;51.172;6.808;2022-08-19T13:51:14;30.80;73.50
4293;DHT22;2160;51.172;6.808;2022-08-19T13:53:43;30.80;72.80
4293;DHT22;2160;51.172;6.808;2022-08-19T13:56:12;31.10;70.70
4293;DHT22;2160;51.172;6.808;2022-08-19T13:58:41;31.10;69.30
4293;DHT22;2160;51.172;6.808;2022-08-19T14:01:09;31.20;69.20
4293;DHT22;2160;51.172;6.808;2022-08-19T14:03:36;31.10;69.90
4293;DHT22;2160;51.172;6.808;2022-08-19T14:06:04;31.20;69.40
4293;DHT22;2160;51.172;6.808;2022-08-19T14:08:31;31.30;71.00
4293;DHT22;2160;51.172;6.808;2022-08-19T14:10:59;31.50;70.10
4293;DHT22;2160;51.172;6.808;2022-08-19T14:13:26;31.60;70.90
4293;DHT22;2160;51.172;6.808;2022-08-19T14:15:54;31.60;69.70
4293;DHT22;2160;51.172;6.808;2022-08-19T14:18:21;31.50;69.80
4293;DHT22;2160;51.172;6.808;2022-08-19T14:20:48;31.60;68.20
4293;DHT22;2160;51.172;6.808;2022-08-19T14:23:15;31.60;67.40
4293;DHT22;2160;51.172;6.808;2022-08-19T14:25:42;31.70;66.70
4293;DHT22;2160;51.172;6.808;2022-08-19T14:28:10;31.70;66.90
4293;DHT22;2160;51.172;6.808;2022-08-19T14:30:37;31.80;65.00
4293;DHT22;2160;51.172;6.808;2022-08-19T14:33:06;31.80;63.40
4293;DHT22;2160;51.172;6.808;2022-08-19T14:35:34;31.70;63.50
4293;DHT22;2160;51.172;6.808;2022-08-19T14:38:02;31.70;62.30
4293;DHT22;2160;51.172;6.808;2022-08-19T14:40:29;31.70;61.30
4293;DHT22;2160;51.172;6.808;2022-08-19T14:42:59;31.60;61.40
4293;DHT22;2160;51.172;6.808;2022-08-19T14:45:30;31.60;60.70
4293;DHT22;2160;51.172;6.808;2022-08-19T14:47:57;31.70;60.50
4293;DHT22;2160;51.172;6.808;2022-08-19T14:50:26;31.70;59.40
4293;DHT22;2160;51.172;6.808;2022-08-19T14:52:58;31.70;60.30
4293;DHT22;2160;51.172;6.808;2022-08-19T14:55:26;31.80;58.80
4293;DHT22;2160;51.172;6.808;2022-08-19T14:57:53;31.80;57.20
4293;DHT22;2160;51.172;6.808;2022-08-19T15:00:21;31.90;55.60
4293;DHT22;2160;51.172;6.808;2022-08-19T15:02:48;32.10;55.60
4293;DHT22;2160;51.172;6.808;2022-08-19T15:05:15;32.20;55.40
4293;DHT22;2160;51.172;6.808;2022-08-19T15:07:44;32.20;56.10
4293;DHT22;2160;51.172;6.808;2022-08-19T15:10:12;32.00;56.70
4293;DHT22;2160;51.172;6.808;2022-08-19T15:12:40;32.00;55.90
4293;DHT22;2160;51.172;6.808;2022-08-19T15:15:09;32.10;55.80
4293;DHT22;2160;51.172;6.808;2022-08-19T15:17:38;32.10;57.00
4293;DHT22;2160;51.172;6.808;2022-08-19T15:20:07;32.10;58.50
4293;DHT22;2160;51.172;6.808;2022-08-19T15:22:34;32.20;59.10
4293;DHT22;2160;51.172;6.808;2022-08-19T15:25:04;32.20;59.50
4293;DHT22;2160;51.172;6.808;2022-08-19T15:27:32;31.90;59.50
4293;DHT22;2160;51.172;6.808;2022-08-19T15:30:00;31.90;59.70
4293;DHT22;2160;51.172;6.808;2022-08-19T15:32:27;31.90;60.00
4293;DHT22;2160;51.172;6.808;2022-08-19T15:34:54;31.80;60.50
4293;DHT22;2160;51.172;6.808;2022-08-19T15:37:21;31.70;62.60
4293;DHT22;2160;51.172;6.808;2022-08-19T15:39:50;31.60;62.80
4293;DHT22;2160;51.172;6.808;2022-08-19T15:42:18;31.50;63.30
4293;DHT22;2160;51.172;6.808;2022-08-19T15:44:45;31.40;63.70
4293;DHT22;2160;51.172;6.808;2022-08-19T15:47:13;31.30;64.60
4293;DHT22;2160;51.172;6.808;2022-08-19T15:49:40;31.00;65.20
4293;DHT22;2160;51.172;6.808;2022-08-19T15:52:07;30.90;65.60
4293;DHT22;2160;51.172;6.808;2022-08-19T15:54:34;30.70;67.20
4293;DHT22;2160;51.172;6.808;2022-08-19T15:57:01;30.50;67.30
4293;DHT22;2160;51.172;6.808;2022-08-19T15:59:47;30.30;68.90
4293;DHT22;2160;51.172;6.808;2022-08-19T16:02:32;30.20;69.50
4293;DHT22;2160;51.172;6.808;2022-08-19T16:05:25;30.10;70.20
4293;DHT22;2160;51.172;6.808;2022-08-19T16:08:10;30.00;70.70
4293;DHT22;2160;51.172;6.808;2022-08-19T16:10:38;30.00;71.90
4293;DHT22;2160;51.172;6.808;2022-08-19T16:13:05;30.00;72.20
4293;DHT22;2160;51.172;6.808;2022-08-19T16:15:33;30.00;73.50
4293;DHT22;2160;51.172;6.808;2022-08-19T16:18:01;30.00;74.90
4293;DHT22;2160;51.172;6.808;2022-08-19T16:20:32;29.90;76.50
4293;DHT22;2160;51.172;6.808;2022-08-19T16:23:09;29.80;77.20
4293;DHT22;2160;51.172;6.808;2022-08-19T16:25:45;29.80;77.70
4293;DHT22;2160;51.172;6.808;2022-08-19T16:28:15;29.70;78.20
4293;DHT22;2160;51.172;6.808;2022-08-19T16:30:51;29.70;79.40
4293;DHT22;2160;51.172;6.808;2022-08-19T16:33:19;29.50;80.30
4293;DHT22;2160;51.172;6.808;2022-08-19T16:35:46;29.30;81.50
4293;DHT22;2160;51.172;6.808;2022-08-19T16:38:13;29.30;82.30
4293;DHT22;2160;51.172;6.808;2022-08-19T16:40:40;29.20;83.10
4293;DHT22;2160;51.172;6.808;2022-08-19T16:43:07;29.20;83.30
4293;DHT22;2160;51.172;6.808;2022-08-19T16:45:34;29.30;83.40
4293;DHT22;2160;51.172;6.808;2022-08-19T16:48:03;29.10;84.30
4293;DHT22;2160;51.172;6.808;2022-08-19T16:50:30;29.20;84.20
4293;DHT22;2160;51.172;6.808;2022-08-19T16:52:57;29.10;84.60
4293;DHT22;2160;51.172;6.808;2022-08-19T16:55:24;29.10;84.70
4293;DHT22;2160;51.172;6.808;2022-08-19T16:57:53;29.10;85.10
4293;DHT22;2160;51.172;6.808;2022-08-19T17:00:20;29.10;84.70
4293;DHT22;2160;51.172;6.808;2022-08-19T17:02:47;29.10;84.90
4293;DHT22;2160;51.172;6.808;2022-08-19T17:05:15;29.00;85.10
4293;DHT22;2160;51.172;6.808;2022-08-19T17:07:43;29.00;85.80
4293;DHT22;2160;51.172;6.808;2022-08-19T17:10:10;29.00;85.90
4293;DHT22;2160;51.172;6.808;2022-08-19T17:12:37;29.10;85.90
4293;DHT22;2160;51.172;6.808;2022-08-19T17:15:06;29.00;86.20
4293;DHT22;2160;51.172;6.808;2022-08-19T17:17:34;29.00;86.40
4293;DHT22;2160;51.172;6.808;2022-08-19T17:20:02;29.00;86.60
4293;DHT22;2160;51.172;6.808;2022-08-19T17:22:33;29.00;87.20
4293;DHT22;2160;51.172;6.808;2022-08-19T17:25:01;29.00;87.40
4293;DHT22;2160;51.172;6.808;2022-08-19T17:27:28;29.00;87.90
4293;DHT22;2160;51.172;6.808;2022-08-19T17:29:55;29.00;87.70
4293;DHT22;2160;51.172;6.808;2022-08-19T17:32:24;29.10;88.40
4293;DHT22;2160;51.172;6.808;2022-08-19T17:34:52;29.10;89.00
4293;DHT22;2160;51.172;6.808;2022-08-19T17:37:19;29.10;89.40
4293;DHT22;2160;51.172;6.808;2022-08-19T17:39:48;29.00;89.90
4293;DHT22;2160;51.172;6.808;2022-08-19T17:42:15;29.00;90.20
4293;DHT22;2160;51.172;6.808;2022-08-19T17:44:44;28.80;90.50
4293;DHT22;2160;51.172;6.808;2022-08-19T17:47:11;28.90;90.80
4293;DHT22;2160;51.172;6.808;2022-08-19T17:49:38;28.80;91.30
4293;DHT22;2160;51.172;6.808;2022-08-19T17:52:06;28.80;91.20
4293;DHT22;2160;51.172;6.808;2022-08-19T17:54:32;28.80;91.40
4293;DHT22;2160;51.172;6.808;2022-08-19T17:57:01;28.80;91.70
4293;DHT22;2160;51.172;6.808;2022-08-19T17:59:28;28.70;91.80
4293;DHT22;2160;51.172;6.808;2022-08-19T18:01:57;28.70;92.00
4293;DHT22;2160;51.172;6.808;2022-08-19T18:04:25;28.70;92.30
4293;DHT22;2160;51.172;6.808;2022-08-19T18:06:54;28.60;92.50
4293;DHT22;2160;51.172;6.808;2022-08-19T18:09:23;28.60;92.70
4293;DHT22;2160;51.172;6.808;2022-08-19T18:11:53;28.60;92.80
4293;DHT22;2160;51.172;6.808;2022-08-19T18:14:24;28.50;93.10
4293;DHT22;2160;51.172;6.808;2022-08-19T18:16:53;28.50;93.70
4293;DHT22;2160;51.172;6.808;2022-08-19T18:19:20;28.30;94.90
4293;DHT22;2160;51.172;6.808;2022-08-19T18:21:47;28.20;95.50
4293;DHT22;2160;51.172;6.808;2022-08-19T18:24:14;28.10;96.10
4293;DHT22;2160;51.172;6.808;2022-08-19T18:26:41;28.20;96.40
4293;DHT22;2160;51.172;6.808;2022-08-19T18:29:08;28.20;96.90
4293;DHT22;2160;51.172;6.808;2022-08-19T18:31:37;28.10;97.20
4293;DHT22;2160;51.172;6.808;2022-08-19T18:34:04;28.10;97.90
4293;DHT22;2160;51.172;6.808;2022-08-19T18:36:32;28.10;98.40
4293;DHT22;2160;51.172;6.808;2022-08-19T18:38:59;28.10;98.80
4293;DHT22;2160;51.172;6.808;2022-08-19T18:41:43;28.10;98.80
4293;DHT22;2160;51.172;6.808;2022-08-19T18:44:28;28.10;98.90
4293;DHT22;2160;51.172;6.808;2022-08-19T18:47:13;28.10;98.90
4293;DHT22;2160;51.172;6.808;2022-08-19T18:49:58;28.20;99.00
4293;DHT22;2160;51.172;6.808;2022-08-19T18:52:32;28.10;99.10
4293;DHT22;2160;51.172;6.808;2022-08-19T18:55:00;28.00;99.20
4293;DHT22;2160;51.172;6.808;2022-08-19T18:57:27;28.00;99.30
4293;DHT22;2160;51.172;6.808;2022-08-19T18:59:53;28.00;99.80
4293;DHT22;2160;51.172;6.808;2022-08-19T19:02:22;27.90;99.50
4293;DHT22;2160;51.172;6.808;2022-08-19T19:04:49;27.80;99.80
4293;DHT22;2160;51.172;6.808;2022-08-19T19:07:17;27.80;99.90
4293;DHT22;2160;51.172;6.808;2022-08-19T19:09:45;27.80;99.90
4293;DHT22;2160;51.172;6.808;2022-08-19T19:12:13;27.80;99.90
4293;DHT22;2160;51.172;6.808;2022-08-19T19:14:46;27.80;99.90
4293;DHT22;2160;51.172;6.808;2022-08-19T19:17:14;27.80;99.90
4293;DHT22;2160;51.172;6.808;2022-08-19T19:23:00;27.70;99.90
4293;DHT22;2160;51.172;6.808;2022-08-19T19:25:27;27.50;99.90
4293;DHT22;2160;51.172;6.808;2022-08-19T19:27:59;27.50;99.90
4293;DHT22;2160;51.172;6.808;2022-08-19T19:30:26;27.50;99.90
4293;DHT22;2160;51.172;6.808;2022-08-19T19:32:55;27.40;99.90
4293;DHT22;2160;51.172;6.808;2022-08-19T19:36:05;27.30;99.90
4293;DHT22;2160;51.172;6.808;2022-08-19T19:42:08;27.30;99.90
4293;DHT22;2160;51.172;6.808;2022-08-19T19:44:57;27.30;99.90
4293;DHT22;2160;51.172;6.808;2022-08-19T19:47:43;27.30;99.90
4293;DHT22;2160;51.172;6.808;2022-08-19T19:50:15;27.30;99.90
4293;DHT22;2160;51.172;6.808;2022-08-19T19:52:44;27.30;99.90
4293;DHT22;2160;51.172;6.808;2022-08-19T19:55:27;27.20;99.90
4293;DHT22;2160;51.172;6.808;2022-08-19T19:57:56;27.30;99.90
4293;DHT22;2160;51.172;6.808;2022-08-19T20:00:24;27.20;99.90
4293;DHT22;2160;51.172;6.808;2022-08-19T20:02:51;27.20;99.90
4293;DHT22;2160;51.172;6.808;2022-08-19T20:05:20;27.20;99.90
4293;DHT22;2160;51.172;6.808;2022-08-19T20:07:50;27.10;99.90
4293;DHT22;2160;51.172;6.808;2022-08-19T20:10:35;27.10;99.90
4293;DHT22;2160;51.172;6.808;2022-08-19T20:13:03;27.00;99.90
4293;DHT22;2160;51.172;6.808;2022-08-19T20:15:30;27.00;99.90
4293;DHT22;2160;51.172;6.808;2022-08-19T20:17:58;26.90;99.90
4293;DHT22;2160;51.172;6.808;2022-08-19T20:20:27;26.80;99.90
4293;DHT22;2160;51.172;6.808;2022-08-19T20:22:56;26.70;99.90
4293;DHT22;2160;51.172;6.808;2022-08-19T20:25:23;26.60;99.90